sensor_id;sensor_type;location;lat;lon;timestamp;P1;durP1;ratioP1;P2;durP2;ratioP2
24373;SDS011;12498;50.880;12.096;2023-07-13T00:01:11;8.57;;;2.17;;
24373;SDS011;12498;50.880;12.096;2023-07-13T00:03:37;10.80;;;2.78;;
24373;SDS011;12498;50.880;12.096;2023-07-13T00:06:06;7.27;;;2.37;;
24373;SDS011;12498;50.880;12.096;2023-07-13T00:08:32;5.97;;;1.70;;
24373;SDS011;12498;50.880;12.096;2023-07-13T00:10:58;8.02;;;1.70;;
24373;SDS011;12498;50.880;12.096;2023-07-13T00:13:25;4.55;;;1.25;;
24373;SDS011;12498;50.880;12.096;2023-07-13T00:15:50;6.93;;;1.50;;
24373;SDS011;12498;50.880;12.096;2023-07-13T00:18:16;5.82;;;1.60;;
24373;SDS011;12498;50.880;12.096;2023-07-13T00:20:42;8.75;;;2.10;;
24373;SDS011;12498;50.880;12.096;2023-07-13T00:23:08;11.43;;;2.92;;
24373;SDS011;12498;50.880;12.096;2023-07-13T00:25:34;10.55;;;2.80;;
24373;SDS011;12498;50.880;12.096;2023-07-13T00:28:00;12.75;;;2.25;;
24373;SDS011;12498;50.880;12.096;2023-07-13T00:30:25;5.72;;;1.58;;
24373;SDS011;12498;50.880;12.096;2023-07-13T00:32:51;5.75;;;1.70;;
24373;SDS011;12498;50.880;12.096;2023-07-13T00:35:17;3.63;;;1.60;;
24373;SDS011;12498;50.880;12.096;2023-07-13T00:37:42;5.13;;;1.50;;
24373;SDS011;12498;50.880;12.096;2023-07-13T00:40:09;7.43;;;2.40;;
24373;SDS011;12498;50.880;12.096;2023-07-13T00:42:39;7.20;;;1.90;;
24373;SDS011;12498;50.880;12.096;2023-07-13T00:47:40;4.85;;;1.52;;
24373;SDS011;12498;50.880;12.096;2023-07-13T00:50:07;5.60;;;1.60;;
24373;SDS011;12498;50.880;12.096;2023-07-13T00:52:37;6.68;;;1.42;;
24373;SDS011;12498;50.880;12.096;2023-07-13T00:55:06;5.35;;;1.70;;
24373;SDS011;12498;50.880;12.096;2023-07-13T00:57:34;19.70;;;4.82;;
24373;SDS011;12498;50.880;12.096;2023-07-13T01:00:00;10.10;;;2.60;;
24373;SDS011;12498;50.880;12.096;2023-07-13T01:02:31;10.75;;;2.70;;
24373;SDS011;12498;50.880;12.096;2023-07-13T01:04:58;9.25;;;2.50;;
24373;SDS011;12498;50.880;12.096;2023-07-13T01:07:24;15.90;;;3.70;;
24373;SDS011;12498;50.880;12.096;2023-07-13T01:09:50;5.80;;;2.00;;
24373;SDS011;12498;50.880;12.096;2023-07-13T01:12:16;7.63;;;2.13;;
24373;SDS011;12498;50.880;12.096;2023-07-13T01:14:41;11.45;;;2.05;;
24373;SDS011;12498;50.880;12.096;2023-07-13T01:17:10;8.85;;;1.90;;
24373;SDS011;12498;50.880;12.096;2023-07-13T01:19:40;8.30;;;1.77;;
24373;SDS011;12498;50.880;12.096;2023-07-13T01:22:09;6.45;;;1.88;;
24373;SDS011;12498;50.880;12.096;2023-07-13T01:24:43;7.22;;;1.60;;
24373;SDS011;12498;50.880;12.096;2023-07-13T01:27:15;9.77;;;1.80;;
24373;SDS011;12498;50.880;12.096;2023-07-13T01:29:45;7.05;;;1.80;;
24373;SDS011;12498;50.880;12.096;2023-07-13T01:32:13;8.57;;;2.45;;
24373;SDS011;12498;50.880;12.096;2023-07-13T01:34:41;9.85;;;2.38;;
24373;SDS011;12498;50.880;12.096;2023-07-13T01:37:10;13.63;;;2.67;;
24373;SDS011;12498;50.880;12.096;2023-07-13T01:39:36;7.72;;;1.92;;
24373;SDS011;12498;50.880;12.096;2023-07-13T01:42:02;7.13;;;1.90;;
24373;SDS011;12498;50.880;12.096;2023-07-13T01:44:29;6.20;;;2.10;;
24373;SDS011;12498;50.880;12.096;2023-07-13T01:46:54;7.30;;;1.58;;
24373;SDS011;12498;50.880;12.096;2023-07-13T01:49:21;12.25;;;2.22;;
24373;SDS011;12498;50.880;12.096;2023-07-13T01:51:47;6.15;;;2.03;;
24373;SDS011;12498;50.880;12.096;2023-07-13T01:54:13;11.75;;;2.05;;
24373;SDS011;12498;50.880;12.096;2023-07-13T01:56:38;4.97;;;2.00;;
24373;SDS011;12498;50.880;12.096;2023-07-13T01:59:04;6.35;;;1.73;;
24373;SDS011;12498;50.880;12.096;2023-07-13T02:01:30;10.45;;;2.10;;
24373;SDS011;12498;50.880;12.096;2023-07-13T02:03:56;5.57;;;2.00;;
24373;SDS011;12498;50.880;12.096;2023-07-13T02:06:21;10.07;;;2.20;;
24373;SDS011;12498;50.880;12.096;2023-07-13T02:08:47;7.93;;;2.50;;
24373;SDS011;12498;50.880;12.096;2023-07-13T02:11:12;12.23;;;3.40;;
24373;SDS011;12498;50.880;12.096;2023-07-13T02:13:38;12.10;;;2.60;;
24373;SDS011;12498;50.880;12.096;2023-07-13T02:16:04;10.20;;;2.40;;
24373;SDS011;12498;50.880;12.096;2023-07-13T02:18:30;9.90;;;2.55;;
24373;SDS011;12498;50.880;12.096;2023-07-13T02:20:56;12.30;;;3.30;;
24373;SDS011;12498;50.880;12.096;2023-07-13T02:23:21;13.93;;;2.83;;
24373;SDS011;12498;50.880;12.096;2023-07-13T02:25:47;11.73;;;2.97;;
24373;SDS011;12498;50.880;12.096;2023-07-13T02:28:12;11.80;;;2.45;;
24373;SDS011;12498;50.880;12.096;2023-07-13T02:30:38;11.40;;;3.67;;
24373;SDS011;12498;50.880;12.096;2023-07-13T02:33:04;10.68;;;2.58;;
24373;SDS011;12498;50.880;12.096;2023-07-13T02:35:30;13.55;;;2.80;;
24373;SDS011;12498;50.880;12.096;2023-07-13T02:37:56;7.63;;;2.38;;
24373;SDS011;12498;50.880;12.096;2023-07-13T02:40:21;9.13;;;2.40;;
24373;SDS011;12498;50.880;12.096;2023-07-13T02:42:48;10.02;;;2.35;;
24373;SDS011;12498;50.880;12.096;2023-07-13T02:45:13;10.73;;;3.30;;
24373;SDS011;12498;50.880;12.096;2023-07-13T02:47:40;10.05;;;3.33;;
24373;SDS011;12498;50.880;12.096;2023-07-13T02:50:06;12.65;;;3.63;;
24373;SDS011;12498;50.880;12.096;2023-07-13T02:52:33;15.82;;;3.70;;
24373;SDS011;12498;50.880;12.096;2023-07-13T02:54:58;17.38;;;4.85;;
24373;SDS011;12498;50.880;12.096;2023-07-13T02:57:24;13.25;;;3.55;;
24373;SDS011;12498;50.880;12.096;2023-07-13T02:59:50;11.50;;;3.13;;
24373;SDS011;12498;50.880;12.096;2023-07-13T03:02:15;9.35;;;2.95;;
24373;SDS011;12498;50.880;12.096;2023-07-13T03:04:41;9.07;;;2.80;;
24373;SDS011;12498;50.880;12.096;2023-07-13T03:07:07;9.15;;;2.75;;
24373;SDS011;12498;50.880;12.096;2023-07-13T03:09:33;20.02;;;4.78;;
24373;SDS011;12498;50.880;12.096;2023-07-13T03:11:59;18.30;;;4.15;;
24373;SDS011;12498;50.880;12.096;2023-07-13T03:14:25;12.00;;;3.40;;
24373;SDS011;12498;50.880;12.096;2023-07-13T03:16:51;16.38;;;4.47;;
24373;SDS011;12498;50.880;12.096;2023-07-13T03:19:17;20.25;;;5.97;;
24373;SDS011;12498;50.880;12.096;2023-07-13T03:21:43;15.48;;;4.32;;
24373;SDS011;12498;50.880;12.096;2023-07-13T03:24:09;14.93;;;5.25;;
24373;SDS011;12498;50.880;12.096;2023-07-13T03:26:35;10.15;;;3.97;;
24373;SDS011;12498;50.880;12.096;2023-07-13T03:29:00;17.73;;;5.28;;
24373;SDS011;12498;50.880;12.096;2023-07-13T03:31:27;12.45;;;4.13;;
24373;SDS011;12498;50.880;12.096;2023-07-13T03:33:54;9.85;;;3.17;;
24373;SDS011;12498;50.880;12.096;2023-07-13T03:36:22;10.85;;;4.28;;
24373;SDS011;12498;50.880;12.096;2023-07-13T03:38:50;20.23;;;6.43;;
24373;SDS011;12498;50.880;12.096;2023-07-13T03:41:18;11.27;;;3.77;;
24373;SDS011;12498;50.880;12.096;2023-07-13T03:43:44;13.65;;;3.45;;
24373;SDS011;12498;50.880;12.096;2023-07-13T03:46:09;12.05;;;3.50;;
24373;SDS011;12498;50.880;12.096;2023-07-13T03:48:35;11.88;;;2.70;;
24373;SDS011;12498;50.880;12.096;2023-07-13T03:51:01;7.50;;;2.72;;
24373;SDS011;12498;50.880;12.096;2023-07-13T03:53:26;7.57;;;2.45;;
24373;SDS011;12498;50.880;12.096;2023-07-13T03:55:52;10.30;;;3.20;;
24373;SDS011;12498;50.880;12.096;2023-07-13T03:58:26;8.80;;;2.72;;
24373;SDS011;12498;50.880;12.096;2023-07-13T04:01:03;18.50;;;4.85;;
24373;SDS011;12498;50.880;12.096;2023-07-13T04:03:30;9.32;;;2.92;;
24373;SDS011;12498;50.880;12.096;2023-07-13T04:05:57;16.65;;;4.18;;
24373;SDS011;12498;50.880;12.096;2023-07-13T04:08:24;9.55;;;2.33;;
24373;SDS011;12498;50.880;12.096;2023-07-13T04:10:54;15.43;;;3.97;;
24373;SDS011;12498;50.880;12.096;2023-07-13T04:13:20;10.85;;;3.33;;
24373;SDS011;12498;50.880;12.096;2023-07-13T04:15:45;19.40;;;6.22;;
24373;SDS011;12498;50.880;12.096;2023-07-13T04:18:11;9.88;;;3.30;;
24373;SDS011;12498;50.880;12.096;2023-07-13T04:20:37;15.48;;;3.65;;
24373;SDS011;12498;50.880;12.096;2023-07-13T04:23:03;17.42;;;4.60;;
24373;SDS011;12498;50.880;12.096;2023-07-13T04:25:28;14.38;;;3.92;;
24373;SDS011;12498;50.880;12.096;2023-07-13T04:27:54;16.55;;;3.60;;
24373;SDS011;12498;50.880;12.096;2023-07-13T04:30:20;11.65;;;3.03;;
24373;SDS011;12498;50.880;12.096;2023-07-13T04:32:46;10.43;;;3.45;;
24373;SDS011;12498;50.880;12.096;2023-07-13T04:35:11;12.95;;;4.30;;
24373;SDS011;12498;50.880;12.096;2023-07-13T04:37:39;12.35;;;3.35;;
24373;SDS011;12498;50.880;12.096;2023-07-13T04:40:05;20.42;;;4.30;;
24373;SDS011;12498;50.880;12.096;2023-07-13T04:42:31;15.40;;;4.78;;
24373;SDS011;12498;50.880;12.096;2023-07-13T04:44:59;11.43;;;3.08;;
24373;SDS011;12498;50.880;12.096;2023-07-13T04:47:25;10.63;;;3.08;;
24373;SDS011;12498;50.880;12.096;2023-07-13T04:49:54;11.52;;;3.05;;
24373;SDS011;12498;50.880;12.096;2023-07-13T04:52:20;11.60;;;2.95;;
24373;SDS011;12498;50.880;12.096;2023-07-13T04:54:46;9.75;;;3.10;;
24373;SDS011;12498;50.880;12.096;2023-07-13T04:57:11;11.63;;;3.00;;
24373;SDS011;12498;50.880;12.096;2023-07-13T04:59:37;9.40;;;2.47;;
24373;SDS011;12498;50.880;12.096;2023-07-13T05:02:03;10.38;;;2.33;;
24373;SDS011;12498;50.880;12.096;2023-07-13T05:04:28;8.30;;;2.95;;
24373;SDS011;12498;50.880;12.096;2023-07-13T05:06:54;10.38;;;2.70;;
24373;SDS011;12498;50.880;12.096;2023-07-13T05:09:19;9.05;;;2.88;;
24373;SDS011;12498;50.880;12.096;2023-07-13T05:11:45;16.52;;;3.88;;
24373;SDS011;12498;50.880;12.096;2023-07-13T05:14:11;14.40;;;3.10;;
24373;SDS011;12498;50.880;12.096;2023-07-13T05:16:36;15.68;;;4.63;;
24373;SDS011;12498;50.880;12.096;2023-07-13T05:19:02;10.63;;;2.67;;
24373;SDS011;12498;50.880;12.096;2023-07-13T05:21:28;11.60;;;2.70;;
24373;SDS011;12498;50.880;12.096;2023-07-13T05:23:53;15.70;;;3.30;;
24373;SDS011;12498;50.880;12.096;2023-07-13T05:26:19;16.45;;;4.60;;
24373;SDS011;12498;50.880;12.096;2023-07-13T05:28:45;9.48;;;3.00;;
24373;SDS011;12498;50.880;12.096;2023-07-13T05:31:11;36.17;;;16.13;;
24373;SDS011;12498;50.880;12.096;2023-07-13T05:33:38;32.33;;;12.40;;
24373;SDS011;12498;50.880;12.096;2023-07-13T05:36:03;11.90;;;4.28;;
24373;SDS011;12498;50.880;12.096;2023-07-13T05:38:29;14.32;;;4.70;;
24373;SDS011;12498;50.880;12.096;2023-07-13T05:40:55;11.05;;;3.20;;
24373;SDS011;12498;50.880;12.096;2023-07-13T05:43:21;11.30;;;3.00;;
24373;SDS011;12498;50.880;12.096;2023-07-13T05:45:48;11.13;;;3.83;;
24373;SDS011;12498;50.880;12.096;2023-07-13T05:48:14;17.13;;;6.28;;
24373;SDS011;12498;50.880;12.096;2023-07-13T05:50:40;22.40;;;10.98;;
24373;SDS011;12498;50.880;12.096;2023-07-13T05:53:06;27.00;;;12.05;;
24373;SDS011;12498;50.880;12.096;2023-07-13T05:55:32;25.60;;;12.02;;
24373;SDS011;12498;50.880;12.096;2023-07-13T05:57:57;48.05;;;23.20;;
24373;SDS011;12498;50.880;12.096;2023-07-13T06:00:24;122.00;;;65.88;;
24373;SDS011;12498;50.880;12.096;2023-07-13T06:02:50;56.60;;;28.90;;
24373;SDS011;12498;50.880;12.096;2023-07-13T06:05:16;67.53;;;35.90;;
24373;SDS011;12498;50.880;12.096;2023-07-13T06:07:41;41.33;;;21.92;;
24373;SDS011;12498;50.880;12.096;2023-07-13T06:10:07;65.75;;;32.17;;
24373;SDS011;12498;50.880;12.096;2023-07-13T06:12:34;150.07;;;79.43;;
24373;SDS011;12498;50.880;12.096;2023-07-13T06:14:59;25.27;;;12.65;;
24373;SDS011;12498;50.880;12.096;2023-07-13T06:17:25;87.95;;;43.85;;
24373;SDS011;12498;50.880;12.096;2023-07-13T06:19:50;135.13;;;68.57;;
24373;SDS011;12498;50.880;12.096;2023-07-13T06:22:16;60.78;;;31.80;;
24373;SDS011;12498;50.880;12.096;2023-07-13T06:24:42;44.47;;;23.85;;
24373;SDS011;12498;50.880;12.096;2023-07-13T06:27:07;52.35;;;26.60;;
24373;SDS011;12498;50.880;12.096;2023-07-13T06:29:33;53.03;;;25.75;;
24373;SDS011;12498;50.880;12.096;2023-07-13T06:31:59;29.42;;;14.57;;
24373;SDS011;12498;50.880;12.096;2023-07-13T06:34:24;23.58;;;9.25;;
24373;SDS011;12498;50.880;12.096;2023-07-13T06:36:50;59.97;;;31.52;;
24373;SDS011;12498;50.880;12.096;2023-07-13T06:39:15;19.92;;;6.65;;
24373;SDS011;12498;50.880;12.096;2023-07-13T06:41:41;57.83;;;25.77;;
24373;SDS011;12498;50.880;12.096;2023-07-13T06:44:07;78.28;;;40.53;;
24373;SDS011;12498;50.880;12.096;2023-07-13T06:46:32;103.75;;;53.88;;
24373;SDS011;12498;50.880;12.096;2023-07-13T06:48:58;20.65;;;10.45;;
24373;SDS011;12498;50.880;12.096;2023-07-13T06:51:24;121.32;;;64.50;;
24373;SDS011;12498;50.880;12.096;2023-07-13T06:53:50;131.93;;;73.95;;
24373;SDS011;12498;50.880;12.096;2023-07-13T06:56:16;59.90;;;28.00;;
24373;SDS011;12498;50.880;12.096;2023-07-13T06:58:42;16.17;;;7.15;;
24373;SDS011;12498;50.880;12.096;2023-07-13T07:01:08;9.45;;;2.83;;
24373;SDS011;12498;50.880;12.096;2023-07-13T07:03:34;13.95;;;4.40;;
24373;SDS011;12498;50.880;12.096;2023-07-13T07:06:00;8.60;;;2.47;;
24373;SDS011;12498;50.880;12.096;2023-07-13T07:08:27;11.50;;;2.83;;
24373;SDS011;12498;50.880;12.096;2023-07-13T07:10:52;17.80;;;5.13;;
24373;SDS011;12498;50.880;12.096;2023-07-13T07:13:19;11.82;;;2.88;;
24373;SDS011;12498;50.880;12.096;2023-07-13T07:15:45;12.27;;;3.22;;
24373;SDS011;12498;50.880;12.096;2023-07-13T07:18:10;12.88;;;3.15;;
24373;SDS011;12498;50.880;12.096;2023-07-13T07:20:36;10.40;;;2.90;;
24373;SDS011;12498;50.880;12.096;2023-07-13T07:23:01;12.50;;;3.38;;
24373;SDS011;12498;50.880;12.096;2023-07-13T07:25:27;11.13;;;3.08;;
24373;SDS011;12498;50.880;12.096;2023-07-13T07:27:56;15.10;;;3.55;;
24373;SDS011;12498;50.880;12.096;2023-07-13T07:30:22;10.18;;;3.00;;
24373;SDS011;12498;50.880;12.096;2023-07-13T07:32:48;7.38;;;2.40;;
24373;SDS011;12498;50.880;12.096;2023-07-13T07:35:14;10.77;;;3.28;;
24373;SDS011;12498;50.880;12.096;2023-07-13T07:37:39;10.02;;;2.90;;
24373;SDS011;12498;50.880;12.096;2023-07-13T07:40:05;12.48;;;3.30;;
24373;SDS011;12498;50.880;12.096;2023-07-13T07:42:31;12.65;;;2.90;;
24373;SDS011;12498;50.880;12.096;2023-07-13T07:44:57;12.98;;;3.78;;
24373;SDS011;12498;50.880;12.096;2023-07-13T07:47:23;8.45;;;2.83;;
24373;SDS011;12498;50.880;12.096;2023-07-13T07:49:49;11.60;;;2.97;;
24373;SDS011;12498;50.880;12.096;2023-07-13T07:52:14;9.88;;;3.45;;
24373;SDS011;12498;50.880;12.096;2023-07-13T07:54:40;11.55;;;3.60;;
24373;SDS011;12498;50.880;12.096;2023-07-13T07:57:06;10.38;;;2.78;;
24373;SDS011;12498;50.880;12.096;2023-07-13T07:59:33;11.18;;;3.70;;
24373;SDS011;12498;50.880;12.096;2023-07-13T08:01:58;8.65;;;3.65;;
24373;SDS011;12498;50.880;12.096;2023-07-13T08:04:24;10.93;;;4.05;;
24373;SDS011;12498;50.880;12.096;2023-07-13T08:06:49;9.32;;;2.83;;
24373;SDS011;12498;50.880;12.096;2023-07-13T08:09:15;10.30;;;2.90;;
24373;SDS011;12498;50.880;12.096;2023-07-13T08:11:41;7.53;;;2.20;;
24373;SDS011;12498;50.880;12.096;2023-07-13T08:14:06;10.48;;;2.30;;
24373;SDS011;12498;50.880;12.096;2023-07-13T08:16:32;7.43;;;2.47;;
24373;SDS011;12498;50.880;12.096;2023-07-13T08:18:57;9.25;;;2.17;;
24373;SDS011;12498;50.880;12.096;2023-07-13T08:21:23;7.50;;;2.35;;
24373;SDS011;12498;50.880;12.096;2023-07-13T08:23:49;11.68;;;2.90;;
24373;SDS011;12498;50.880;12.096;2023-07-13T08:26:14;10.98;;;2.40;;
24373;SDS011;12498;50.880;12.096;2023-07-13T08:28:40;7.75;;;2.80;;
24373;SDS011;12498;50.880;12.096;2023-07-13T08:31:06;8.43;;;2.13;;
24373;SDS011;12498;50.880;12.096;2023-07-13T08:33:33;13.02;;;1.90;;
24373;SDS011;12498;50.880;12.096;2023-07-13T08:36:00;4.72;;;1.85;;
24373;SDS011;12498;50.880;12.096;2023-07-13T08:38:25;5.47;;;1.88;;
24373;SDS011;12498;50.880;12.096;2023-07-13T08:40:52;11.63;;;2.38;;
24373;SDS011;12498;50.880;12.096;2023-07-13T08:43:20;5.97;;;1.70;;
24373;SDS011;12498;50.880;12.096;2023-07-13T08:45:54;11.60;;;2.38;;
24373;SDS011;12498;50.880;12.096;2023-07-13T08:48:36;8.38;;;2.08;;
24373;SDS011;12498;50.880;12.096;2023-07-13T08:51:23;6.22;;;1.58;;
24373;SDS011;12498;50.880;12.096;2023-07-13T08:53:54;5.15;;;1.73;;
24373;SDS011;12498;50.880;12.096;2023-07-13T08:56:25;13.90;;;2.38;;
24373;SDS011;12498;50.880;12.096;2023-07-13T08:59:13;9.18;;;2.28;;
24373;SDS011;12498;50.880;12.096;2023-07-13T09:04:34;6.25;;;2.10;;
24373;SDS011;12498;50.880;12.096;2023-07-13T09:07:11;11.75;;;3.15;;
24373;SDS011;12498;50.880;12.096;2023-07-13T09:09:53;11.00;;;2.47;;
24373;SDS011;12498;50.880;12.096;2023-07-13T09:12:38;7.03;;;2.13;;
24373;SDS011;12498;50.880;12.096;2023-07-13T09:15:28;5.68;;;1.85;;
24373;SDS011;12498;50.880;12.096;2023-07-13T09:18:46;9.85;;;1.80;;
24373;SDS011;12498;50.880;12.096;2023-07-13T09:23:28;6.00;;;1.73;;
24373;SDS011;12498;50.880;12.096;2023-07-13T09:26:04;4.85;;;1.88;;
24373;SDS011;12498;50.880;12.096;2023-07-13T09:28:52;8.20;;;2.42;;
24373;SDS011;12498;50.880;12.096;2023-07-13T09:34:11;7.72;;;2.10;;
24373;SDS011;12498;50.880;12.096;2023-07-13T09:36:38;5.25;;;1.92;;
24373;SDS011;12498;50.880;12.096;2023-07-13T09:44:14;5.68;;;2.15;;
24373;SDS011;12498;50.880;12.096;2023-07-13T09:46:46;5.57;;;1.70;;
24373;SDS011;12498;50.880;12.096;2023-07-13T09:49:18;7.32;;;2.47;;
24373;SDS011;12498;50.880;12.096;2023-07-13T09:51:48;9.50;;;2.95;;
24373;SDS011;12498;50.880;12.096;2023-07-13T09:54:25;8.23;;;2.03;;
24373;SDS011;12498;50.880;12.096;2023-07-13T09:56:54;8.75;;;2.58;;
24373;SDS011;12498;50.880;12.096;2023-07-13T09:59:22;8.60;;;2.40;;
24373;SDS011;12498;50.880;12.096;2023-07-13T10:01:49;6.75;;;2.00;;
24373;SDS011;12498;50.880;12.096;2023-07-13T10:04:16;6.32;;;2.20;;
24373;SDS011;12498;50.880;12.096;2023-07-13T10:06:44;10.48;;;4.35;;
24373;SDS011;12498;50.880;12.096;2023-07-13T10:09:13;9.25;;;3.92;;
24373;SDS011;12498;50.880;12.096;2023-07-13T10:11:43;6.30;;;2.05;;
24373;SDS011;12498;50.880;12.096;2023-07-13T10:14:11;9.75;;;1.90;;
24373;SDS011;12498;50.880;12.096;2023-07-13T10:16:40;5.88;;;1.90;;
24373;SDS011;12498;50.880;12.096;2023-07-13T10:21:55;10.40;;;2.20;;
24373;SDS011;12498;50.880;12.096;2023-07-13T10:24:25;6.88;;;1.70;;
24373;SDS011;12498;50.880;12.096;2023-07-13T10:29:46;7.55;;;2.22;;
24373;SDS011;12498;50.880;12.096;2023-07-13T10:32:14;5.75;;;1.70;;
24373;SDS011;12498;50.880;12.096;2023-07-13T10:34:41;10.80;;;6.05;;
24373;SDS011;12498;50.880;12.096;2023-07-13T10:37:19;6.10;;;2.10;;
24373;SDS011;12498;50.880;12.096;2023-07-13T10:39:48;4.82;;;1.60;;
24373;SDS011;12498;50.880;12.096;2023-07-13T10:42:18;6.32;;;2.28;;
24373;SDS011;12498;50.880;12.096;2023-07-13T10:45:16;3.83;;;1.48;;
24373;SDS011;12498;50.880;12.096;2023-07-13T10:47:44;8.43;;;2.28;;
24373;SDS011;12498;50.880;12.096;2023-07-13T10:50:15;8.77;;;1.60;;
24373;SDS011;12498;50.880;12.096;2023-07-13T10:52:46;5.13;;;2.10;;
24373;SDS011;12498;50.880;12.096;2023-07-13T10:58:22;8.48;;;1.70;;
24373;SDS011;12498;50.880;12.096;2023-07-13T11:03:32;4.85;;;2.00;;
24373;SDS011;12498;50.880;12.096;2023-07-13T11:11:58;11.55;;;1.60;;
24373;SDS011;12498;50.880;12.096;2023-07-13T11:14:27;6.10;;;1.67;;
24373;SDS011;12498;50.880;12.096;2023-07-13T11:16:55;4.88;;;1.65;;
24373;SDS011;12498;50.880;12.096;2023-07-13T11:22:10;7.30;;;1.80;;
24373;SDS011;12498;50.880;12.096;2023-07-13T11:24:51;6.43;;;1.50;;
24373;SDS011;12498;50.880;12.096;2023-07-13T11:27:28;6.75;;;1.30;;
24373;SDS011;12498;50.880;12.096;2023-07-13T11:30:07;6.82;;;1.30;;
24373;SDS011;12498;50.880;12.096;2023-07-13T11:32:44;5.60;;;1.35;;
24373;SDS011;12498;50.880;12.096;2023-07-13T11:35:16;5.93;;;1.55;;
24373;SDS011;12498;50.880;12.096;2023-07-13T11:37:50;5.80;;;1.52;;
24373;SDS011;12498;50.880;12.096;2023-07-13T11:40:17;2.97;;;1.20;;
24373;SDS011;12498;50.880;12.096;2023-07-13T11:42:43;4.18;;;0.93;;
24373;SDS011;12498;50.880;12.096;2023-07-13T11:45:18;4.15;;;1.20;;
24373;SDS011;12498;50.880;12.096;2023-07-13T11:47:48;2.80;;;0.90;;
24373;SDS011;12498;50.880;12.096;2023-07-13T11:50:20;5.18;;;0.88;;
24373;SDS011;12498;50.880;12.096;2023-07-13T11:52:49;2.97;;;0.82;;
24373;SDS011;12498;50.880;12.096;2023-07-13T11:55:17;1.88;;;0.75;;
24373;SDS011;12498;50.880;12.096;2023-07-13T11:57:57;3.40;;;1.10;;
24373;SDS011;12498;50.880;12.096;2023-07-13T12:00:26;2.28;;;1.00;;
24373;SDS011;12498;50.880;12.096;2023-07-13T12:02:56;5.28;;;1.00;;
24373;SDS011;12498;50.880;12.096;2023-07-13T12:05:24;3.20;;;1.00;;
24373;SDS011;12498;50.880;12.096;2023-07-13T12:07:50;3.63;;;1.10;;
24373;SDS011;12498;50.880;12.096;2023-07-13T12:10:29;3.35;;;1.00;;
24373;SDS011;12498;50.880;12.096;2023-07-13T12:13:00;1.92;;;0.88;;
24373;SDS011;12498;50.880;12.096;2023-07-13T12:15:34;3.55;;;1.25;;
24373;SDS011;12498;50.880;12.096;2023-07-13T12:18:10;2.03;;;0.98;;
24373;SDS011;12498;50.880;12.096;2023-07-13T12:20:47;3.47;;;1.45;;
24373;SDS011;12498;50.880;12.096;2023-07-13T12:23:22;3.25;;;1.10;;
24373;SDS011;12498;50.880;12.096;2023-07-13T12:25:50;3.58;;;1.35;;
24373;SDS011;12498;50.880;12.096;2023-07-13T12:28:31;2.45;;;0.98;;
24373;SDS011;12498;50.880;12.096;2023-07-13T12:31:03;4.25;;;1.15;;
24373;SDS011;12498;50.880;12.096;2023-07-13T12:33:31;5.95;;;1.30;;
24373;SDS011;12498;50.880;12.096;2023-07-13T12:35:59;6.05;;;0.90;;
24373;SDS011;12498;50.880;12.096;2023-07-13T12:38:29;2.80;;;1.10;;
24373;SDS011;12498;50.880;12.096;2023-07-13T12:40:55;1.95;;;0.80;;
24373;SDS011;12498;50.880;12.096;2023-07-13T12:43:22;4.28;;;0.90;;
24373;SDS011;12498;50.880;12.096;2023-07-13T12:48:40;3.35;;;1.02;;
24373;SDS011;12498;50.880;12.096;2023-07-13T12:51:09;2.95;;;0.90;;
24373;SDS011;12498;50.880;12.096;2023-07-13T12:53:43;7.25;;;0.90;;
24373;SDS011;12498;50.880;12.096;2023-07-13T12:56:17;4.40;;;0.98;;
24373;SDS011;12498;50.880;12.096;2023-07-13T12:58:45;3.78;;;1.00;;
24373;SDS011;12498;50.880;12.096;2023-07-13T13:01:15;1.95;;;0.80;;
24373;SDS011;12498;50.880;12.096;2023-07-13T13:03:46;2.75;;;0.85;;
24373;SDS011;12498;50.880;12.096;2023-07-13T13:08:43;1.92;;;0.80;;
24373;SDS011;12498;50.880;12.096;2023-07-13T13:11:17;2.17;;;0.90;;
24373;SDS011;12498;50.880;12.096;2023-07-13T13:13:43;2.63;;;1.00;;
24373;SDS011;12498;50.880;12.096;2023-07-13T13:18:50;2.00;;;0.88;;
24373;SDS011;12498;50.880;12.096;2023-07-13T13:21:17;4.20;;;1.50;;
24373;SDS011;12498;50.880;12.096;2023-07-13T13:23:44;5.25;;;1.20;;
24373;SDS011;12498;50.880;12.096;2023-07-13T13:26:11;3.30;;;1.00;;
24373;SDS011;12498;50.880;12.096;2023-07-13T13:28:39;4.25;;;0.90;;
24373;SDS011;12498;50.880;12.096;2023-07-13T13:31:07;2.42;;;0.90;;
24373;SDS011;12498;50.880;12.096;2023-07-13T13:33:38;4.25;;;1.08;;
24373;SDS011;12498;50.880;12.096;2023-07-13T13:36:17;2.28;;;0.82;;
24373;SDS011;12498;50.880;12.096;2023-07-13T13:38:45;2.33;;;1.02;;
24373;SDS011;12498;50.880;12.096;2023-07-13T13:41:11;5.47;;;1.10;;
24373;SDS011;12498;50.880;12.096;2023-07-13T13:43:39;2.78;;;1.15;;
24373;SDS011;12498;50.880;12.096;2023-07-13T13:46:12;3.13;;;1.50;;
24373;SDS011;12498;50.880;12.096;2023-07-13T13:48:57;5.72;;;1.00;;
24373;SDS011;12498;50.880;12.096;2023-07-13T13:51:23;5.03;;;1.02;;
24373;SDS011;12498;50.880;12.096;2023-07-13T13:53:49;1.63;;;0.90;;
24373;SDS011;12498;50.880;12.096;2023-07-13T13:56:15;3.53;;;1.05;;
24373;SDS011;12498;50.880;12.096;2023-07-13T13:58:42;2.40;;;1.23;;
24373;SDS011;12498;50.880;12.096;2023-07-13T14:01:41;4.95;;;1.20;;
24373;SDS011;12498;50.880;12.096;2023-07-13T14:04:00;2.65;;;1.00;;
24373;SDS011;12498;50.880;12.096;2023-07-13T14:06:26;4.35;;;1.00;;
24373;SDS011;12498;50.880;12.096;2023-07-13T14:08:52;4.03;;;1.10;;
24373;SDS011;12498;50.880;12.096;2023-07-13T14:11:20;4.05;;;1.10;;
24373;SDS011;12498;50.880;12.096;2023-07-13T14:14:04;3.10;;;1.10;;
24373;SDS011;12498;50.880;12.096;2023-07-13T14:16:30;4.25;;;1.20;;
24373;SDS011;12498;50.880;12.096;2023-07-13T14:18:58;4.32;;;1.17;;
24373;SDS011;12498;50.880;12.096;2023-07-13T14:21:25;2.33;;;0.90;;
24373;SDS011;12498;50.880;12.096;2023-07-13T14:23:53;3.90;;;1.40;;
24373;SDS011;12498;50.880;12.096;2023-07-13T14:26:20;3.97;;;1.40;;
24373;SDS011;12498;50.880;12.096;2023-07-13T14:28:48;4.60;;;1.48;;
24373;SDS011;12498;50.880;12.096;2023-07-13T14:31:20;4.95;;;1.75;;
24373;SDS011;12498;50.880;12.096;2023-07-13T14:33:48;2.70;;;1.20;;
24373;SDS011;12498;50.880;12.096;2023-07-13T14:39:00;8.27;;;1.48;;
24373;SDS011;12498;50.880;12.096;2023-07-13T14:41:31;6.75;;;0.90;;
24373;SDS011;12498;50.880;12.096;2023-07-13T14:43:57;6.95;;;1.95;;
24373;SDS011;12498;50.880;12.096;2023-07-13T14:49:16;4.80;;;1.40;;
24373;SDS011;12498;50.880;12.096;2023-07-13T14:51:51;4.00;;;1.20;;
24373;SDS011;12498;50.880;12.096;2023-07-13T14:54:17;2.65;;;1.10;;
24373;SDS011;12498;50.880;12.096;2023-07-13T14:56:42;4.32;;;1.38;;
24373;SDS011;12498;50.880;12.096;2023-07-13T14:59:08;3.45;;;1.60;;
24373;SDS011;12498;50.880;12.096;2023-07-13T15:01:34;3.60;;;1.20;;
24373;SDS011;12498;50.880;12.096;2023-07-13T15:04:02;5.78;;;1.80;;
24373;SDS011;12498;50.880;12.096;2023-07-13T15:06:28;3.85;;;1.10;;
24373;SDS011;12498;50.880;12.096;2023-07-13T15:08:56;4.30;;;1.00;;
24373;SDS011;12498;50.880;12.096;2023-07-13T15:11:22;5.65;;;1.40;;
24373;SDS011;12498;50.880;12.096;2023-07-13T15:13:48;4.18;;;1.00;;
24373;SDS011;12498;50.880;12.096;2023-07-13T15:16:32;4.18;;;0.90;;
24373;SDS011;12498;50.880;12.096;2023-07-13T15:18:59;4.15;;;1.10;;
24373;SDS011;12498;50.880;12.096;2023-07-13T15:21:25;3.25;;;1.00;;
24373;SDS011;12498;50.880;12.096;2023-07-13T15:23:53;5.25;;;1.00;;